South Padre Island, TX

8:18 PM CDT on July 29, 2014 (GMT -0500)
Port Isabel (KPIL) Elev 16 ft | 26.16 °N, 97.34 °W | Change Station

Current weather conditions updated 25 minutes ago

Haze
Haze
85 °F
Feels Like 93 °F
N
16
Wind Variable Wind from SE

Tomorrow is forecast to be Much Cooler than today.

Today
High -- | Low -- °F
--% Chance of Precip.
Yesterday
High -- | Low -- °F
Precip. -- in
6:52 AM 8:16 PM
Waxing Crescent, 8% visible
Pressure 30.00 in
Visibility 6.0 miles
Clouds Clear
Heat Index 93 °F
Dew Point 75 °F
Humidity 72%
Rainfall 0.00 in
Snow Depth Not available.
UV 0 out of 12
Pollen 5.40 out of 12
Air Quality Not available.
Flu Activity Not available.
METAR KPIL 300053Z AUTO 13014KT 6SM HZ CLR 29/24 A3000 RMK AO2 SLP157 T02940239

More Conditions Fewer Conditions

Pressure 30.00 in
Visibility 6.0 miles
Clouds Clear
Heat Index 93 °F
Dew Point 75 °F
Humidity 72%
Rainfall 0.00 in
Snow Depth Not available.
UV 0 out of 12
Pollen 5.40 out of 12
Air Quality Not available.
Flu Activity Not available.
METAR KPIL 300053Z AUTO 13014KT 6SM HZ CLR 29/24 A3000 RMK AO2 SLP157 T02940239

More Conditions Fewer Conditions

10-Day Weather Forecast

Almanac

Astronomy

Jul. 29, 2014 Rise Set
Actual Time 6:52 AM CDT 8:16 PM CDT
Civil Twilight 6:28 AM CDT 8:41 PM CDT
Nautical Twilight 5:58 AM CDT 9:11 PM CDT
Astronomical Twilight 5:27 AM CDT 9:42 PM CDT
Moon 9:10 AM CDT (7/29) 9:52 PM CDT (7/29)
Length of Visible Light 14h 13m
Length of Day
13h 24m
Tomorrow will be 1m 5s shorter.
Waxing Crescent, 8% of the Moon is Illuminated
Today
Waxing Crescent
Aug 3
First Quarter
Aug 10
Full
Aug 17
Last Quarter
Aug 25
New

Today's Extremes

State Highs State Lows

Community

WunderPhotos

Upload Photos

1,738,939 photos uploaded!

Nearby

Snow Depth

Station Depth Elevation
No new snow has been reported.

Earthquake Activity

City Distance Mag. Time & Date
No recent earthquake activity has been reported nearby.
Minimum magnitude displayed is 2.5.

Coastal Water Temperatures

Place Temperature
Port Isabel, TX 82.9 °F
Baffin Bay Point of Rocks, TX 87.1 °F
South Bird Island, TX 86.0 °F
Malaquite Beach (Corpus Christi), TX 80.1 °F
Packery Channel, TX 84.9 °F

Nearby Weather Stations

Station Location Temp. Heat Index Dew Point Humidity Wind Precip. Elev Updated Type
RAWS LAGUNA ATASCOSA TX, Lozano, TX 86 °F 95 °F 75 °F 69% SE  at  10 mph 0.00 in / hr 24 ft 7:22 PM CDT MADIS
South Texas, Los Fresnos, TX 84.2 °F 93 °F 76 °F 76% NE  at  11.0 mph 0.00 in / hr 20 ft 7:15 PM CST Normal
MesoWest LOZANO , Rio Hondo, TX 103 °F 96 °F - - North  at  - 0.00 in / hr 30 ft 4:55 PM CDT MADIS

Show More Stations Show Fewer Stations